Time;durP1;ratioP1;P1;durP2;ratioP2;P2;SDS_P1;SDS_P2;PMS_P1;PMS_P2;Temp;Humidity;BMP_temperature;BMP_pressure;BME280_temperature;BME280_humidity;BME280_pressure;Samples;Min_cycle;Max_cycle;Signal;HPM_P1;HPM_P2
2021/08/17 00:00:57;;;;;;;9.03;5.37;;;;;;;;;;755391;184;920146;-61
2021/08/17 00:03:23;;;;;;;15.00;5.47;;;;;;;;;;757242;183;930261;-61
2021/08/17 00:05:49;;;;;;;10.50;5.47;;;;;;;;;;760055;183;921582;-61
2021/08/17 00:08:14;;;;;;;10.60;5.37;;;;;;;;;;756155;181;919011;-61
2021/08/17 00:10:40;;;;;;;10.40;5.87;;;;;;;;;;756191;181;918714;-61
2021/08/17 00:13:06;;;;;;;11.57;6.90;;;;;;;;;;759566;184;917963;-61
2021/08/17 00:15:34;;;;;;;10.10;6.70;;;;;;;;;;754563;183;919358;-61
2021/08/17 00:17:58;;;;;;;10.20;5.33;;;;;;;;;;752463;183;918674;-61
2021/08/17 00:20:24;;;;;;;18.90;6.10;;;;;;;;;;753996;184;920479;-61
2021/08/17 00:22:49;;;;;;;15.60;5.87;;;;;;;;;;760889;183;917690;-61
2021/08/17 00:25:15;;;;;;;11.83;5.93;;;;;;;;;;754275;183;917656;-60
2021/08/17 00:27:41;;;;;;;11.93;5.40;;;;;;;;;;753844;183;922010;-61
2021/08/17 00:30:08;;;;;;;10.43;5.93;;;;;;;;;;758993;183;919288;-61
2021/08/17 00:32:33;;;;;;;8.90;5.93;;;;;;;;;;754361;184;919947;-60
2021/08/17 00:34:59;;;;;;;8.60;5.40;;;;;;;;;;755465;184;913667;-61
2021/08/17 00:37:25;;;;;;;11.13;5.87;;;;;;;;;;758241;184;913988;-61
2021/08/17 00:39:51;;;;;;;11.60;6.37;;;;;;;;;;754590;184;918933;-62
2021/08/17 00:42:17;;;;;;;11.40;6.10;;;;;;;;;;754785;184;919106;-60
2021/08/17 00:44:43;;;;;;;11.83;6.03;;;;;;;;;;754146;182;919979;-60
2021/08/17 00:47:08;;;;;;;14.57;6.32;;;;;;;;;;756904;184;885101;-61
2021/08/17 00:49:34;;;;;;;9.80;5.67;;;;;;;;;;754020;184;919681;-62
2021/08/17 00:52:00;;;;;;;11.77;6.27;;;;;;;;;;753879;184;918985;-63
2021/08/17 00:54:26;;;;;;;8.13;4.97;;;;;;;;;;760121;184;919128;-61
2021/08/17 00:56:53;;;;;;;9.10;5.10;;;;;;;;;;755372;184;920017;-60
2021/08/17 00:59:18;;;;;;;13.30;6.10;;;;;;;;;;754999;184;919961;-60
2021/08/17 01:01:44;;;;;;;13.83;6.27;;;;;;;;;;758496;184;919248;-62
2021/08/17 01:04:10;;;;;;;12.53;6.00;;;;;;;;;;754369;184;919640;-60
2021/08/17 01:06:36;;;;;;;8.80;6.30;;;;;;;;;;756096;182;918747;-60
2021/08/17 01:09:02;;;;;;;12.60;6.37;;;;;;;;;;756569;183;920475;-60
2021/08/17 01:11:28;;;;;;;10.50;6.30;;;;;;;;;;760179;182;1022048;-60
2021/08/17 01:13:53;;;;;;;10.93;6.43;;;;;;;;;;755501;181;919183;-61
2021/08/17 01:16:19;;;;;;;10.90;6.30;;;;;;;;;;754845;183;918652;-60
2021/08/17 01:18:45;;;;;;;13.63;6.00;;;;;;;;;;762084;183;919023;-61
2021/08/17 01:21:11;;;;;;;13.80;6.50;;;;;;;;;;756164;183;918940;-60
2021/08/17 01:23:37;;;;;;;11.13;5.70;;;;;;;;;;755800;184;918086;-61
2021/08/17 01:26:03;;;;;;;10.43;6.10;;;;;;;;;;759137;183;918744;-60
2021/08/17 01:28:28;;;;;;;13.10;6.33;;;;;;;;;;754739;183;919392;-61
2021/08/17 01:30:57;;;;;;;9.30;5.70;;;;;;;;;;756991;183;919456;-60
2021/08/17 01:33:23;;;;;;;10.77;6.47;;;;;;;;;;754680;183;918572;-61
2021/08/17 01:35:49;;;;;;;20.43;7.33;;;;;;;;;;754279;183;917863;-61
2021/08/17 01:38:15;;;;;;;9.63;7.47;;;;;;;;;;754553;181;919716;-60
2021/08/17 01:40:40;;;;;;;10.90;6.78;;;;;;;;;;752984;183;943240;-60
2021/08/17 01:43:06;;;;;;;16.50;7.27;;;;;;;;;;759987;183;918886;-60
2021/08/17 01:45:32;;;;;;;10.30;6.90;;;;;;;;;;753827;184;1021407;-61
2021/08/17 01:47:58;;;;;;;9.87;5.43;;;;;;;;;;755634;181;926481;-62
2021/08/17 01:50:24;;;;;;;11.03;6.67;;;;;;;;;;759846;184;917771;-61
2021/08/17 01:52:50;;;;;;;12.63;6.73;;;;;;;;;;756821;182;918331;-61
2021/08/17 01:55:15;;;;;;;13.27;6.60;;;;;;;;;;755933;181;919734;-60
2021/08/17 01:57:42;;;;;;;11.20;6.43;;;;;;;;;;760587;184;919315;-60
2021/08/17 02:00:09;;;;;;;9.63;5.37;;;;;;;;;;763673;181;919215;-61
2021/08/17 02:02:35;;;;;;;8.57;6.57;;;;;;;;;;754050;184;919757;-60
2021/08/17 02:05:00;;;;;;;12.73;7.30;;;;;;;;;;755864;184;918862;-60
2021/08/17 02:07:26;;;;;;;10.05;5.95;;;;;;;;;;759368;183;916463;-61
2021/08/17 02:09:52;;;;;;;13.00;7.00;;;;;;;;;;754392;184;919703;-60
2021/08/17 02:12:18;;;;;;;13.80;6.60;;;;;;;;;;755192;184;925977;-60
2021/08/17 02:14:44;;;;;;;10.43;5.67;;;;;;;;;;760299;184;918915;-60
2021/08/17 02:17:10;;;;;;;10.00;6.40;;;;;;;;;;754732;182;919672;-61
2021/08/17 02:19:35;;;;;;;11.63;6.17;;;;;;;;;;756914;184;919550;-60
2021/08/17 02:22:01;;;;;;;18.23;8.63;;;;;;;;;;760974;181;918503;-60
2021/08/17 02:24:27;;;;;;;9.57;6.22;;;;;;;;;;754496;183;919095;-60
2021/08/17 02:26:53;;;;;;;8.17;6.13;;;;;;;;;;754871;183;919354;-60
2021/08/17 02:29:19;;;;;;;18.20;6.70;;;;;;;;;;753364;183;920452;-60
2021/08/17 02:31:45;;;;;;;12.60;7.27;;;;;;;;;;760806;183;923969;-60
2021/08/17 02:34:10;;;;;;;17.10;7.27;;;;;;;;;;754428;183;1020930;-60
2021/08/17 02:36:36;;;;;;;8.07;6.13;;;;;;;;;;754886;182;925020;-60
2021/08/17 02:39:02;;;;;;;19.43;7.43;;;;;;;;;;761521;181;919697;-60
2021/08/17 02:41:28;;;;;;;10.00;6.70;;;;;;;;;;756281;183;930887;-61
2021/08/17 02:43:54;;;;;;;12.48;7.05;;;;;;;;;;753886;183;919624;-60
2021/08/17 02:46:20;;;;;;;10.13;5.80;;;;;;;;;;761603;183;919013;-60
2021/08/17 02:48:45;;;;;;;13.13;6.87;;;;;;;;;;753534;184;919735;-60
2021/08/17 02:51:11;;;;;;;7.03;6.33;;;;;;;;;;753602;183;919536;-60
2021/08/17 02:53:37;;;;;;;10.90;6.20;;;;;;;;;;753606;181;918552;-60
2021/08/17 02:56:03;;;;;;;12.87;7.60;;;;;;;;;;758884;183;917800;-60
2021/08/17 02:58:29;;;;;;;10.10;6.43;;;;;;;;;;754259;184;918167;-60
2021/08/17 03:00:55;;;;;;;11.23;7.10;;;;;;;;;;753556;181;919293;-60
2021/08/17 03:03:21;;;;;;;11.20;6.27;;;;;;;;;;760631;184;919336;-60
2021/08/17 03:05:47;;;;;;;15.83;6.20;;;;;;;;;;753872;184;1021539;-60
2021/08/17 03:08:12;;;;;;;7.50;5.97;;;;;;;;;;754062;181;919038;-60
2021/08/17 03:10:38;;;;;;;17.43;7.60;;;;;;;;;;760809;183;918157;-60
2021/08/17 03:13:04;;;;;;;10.00;6.90;;;;;;;;;;754383;184;919973;-60
2021/08/17 03:15:33;;;;;;;10.13;6.77;;;;;;;;;;754011;184;922522;-60
2021/08/17 03:18:02;;;;;;;16.03;7.23;;;;;;;;;;754865;184;920044;-61
2021/08/17 03:20:28;;;;;;;11.63;6.33;;;;;;;;;;758963;184;919071;-62
2021/08/17 03:22:54;;;;;;;12.50;7.30;;;;;;;;;;753144;183;919417;-62
2021/08/17 03:25:20;;;;;;;16.40;7.03;;;;;;;;;;753147;182;925468;-62
2021/08/17 03:27:46;;;;;;;10.30;6.10;;;;;;;;;;758530;184;919541;-62
2021/08/17 03:30:12;;;;;;;12.60;8.10;;;;;;;;;;756179;181;917759;-63
2021/08/17 03:32:38;;;;;;;10.87;7.23;;;;;;;;;;754618;182;945941;-63
2021/08/17 03:35:05;;;;;;;17.70;7.95;;;;;;;;;;757920;183;919928;-61
2021/08/17 03:37:31;;;;;;;12.83;7.80;;;;;;;;;;755602;181;918836;-62
2021/08/17 03:39:56;;;;;;;17.50;7.50;;;;;;;;;;753770;183;925002;-62
2021/08/17 03:42:22;;;;;;;19.10;7.93;;;;;;;;;;754139;184;922550;-61
2021/08/17 03:44:48;;;;;;;16.93;9.00;;;;;;;;;;761189;183;918839;-61
2021/08/17 03:47:14;;;;;;;18.20;10.43;;;;;;;;;;755828;183;919141;-61
2021/08/17 03:49:40;;;;;;;15.50;9.32;;;;;;;;;;754255;183;919356;-62
2021/08/17 03:52:06;;;;;;;6.47;5.77;;;;;;;;;;759333;183;919005;-60
2021/08/17 03:54:32;;;;;;;7.87;5.90;;;;;;;;;;757162;183;918795;-62
2021/08/17 03:56:57;;;;;;;6.67;4.90;;;;;;;;;;754810;185;919075;-61
2021/08/17 03:59:23;;;;;;;7.80;4.13;;;;;;;;;;759503;183;920178;-62
2021/08/17 04:01:49;;;;;;;14.90;4.70;;;;;;;;;;754775;183;919436;-61
2021/08/17 04:04:15;;;;;;;7.13;4.23;;;;;;;;;;757568;183;640201;-63
2021/08/17 04:06:41;;;;;;;9.50;4.50;;;;;;;;;;756654;184;918163;-63
2021/08/17 04:09:07;;;;;;;8.17;4.23;;;;;;;;;;762194;184;636750;-60
2021/08/17 04:11:33;;;;;;;5.00;3.73;;;;;;;;;;755943;181;918912;-61
2021/08/17 04:13:58;;;;;;;6.05;3.72;;;;;;;;;;756301;184;919062;-60
2021/08/17 04:16:24;;;;;;;4.90;3.10;;;;;;;;;;760359;184;918816;-60
2021/08/17 04:18:50;;;;;;;4.22;3.12;;;;;;;;;;757155;184;917711;-60
2021/08/17 04:21:16;;;;;;;5.37;2.73;;;;;;;;;;756893;180;920310;-60
2021/08/17 04:23:42;;;;;;;6.17;3.47;;;;;;;;;;759247;184;918027;-60
2021/08/17 04:26:08;;;;;;;4.23;2.97;;;;;;;;;;754487;184;919361;-60
2021/08/17 04:28:33;;;;;;;3.23;2.33;;;;;;;;;;753169;184;919455;-60
2021/08/17 04:30:59;;;;;;;4.60;2.10;;;;;;;;;;755642;184;920310;-60
2021/08/17 04:33:26;;;;;;;4.63;1.77;;;;;;;;;;759957;184;919590;-60
2021/08/17 04:35:51;;;;;;;4.93;2.40;;;;;;;;;;754532;184;918587;-61
2021/08/17 04:38:17;;;;;;;2.55;1.70;;;;;;;;;;753648;181;922218;-61
2021/08/17 04:40:43;;;;;;;2.53;1.60;;;;;;;;;;760712;183;919309;-60
2021/08/17 04:43:09;;;;;;;2.20;1.00;;;;;;;;;;757855;183;920157;-61
2021/08/17 04:45:35;;;;;;;2.15;1.12;;;;;;;;;;755500;184;919873;-61
2021/08/17 04:48:01;;;;;;;2.50;1.30;;;;;;;;;;760695;184;919258;-61
2021/08/17 04:50:26;;;;;;;5.63;1.13;;;;;;;;;;754803;183;918891;-62
2021/08/17 04:52:52;;;;;;;2.47;1.10;;;;;;;;;;754833;181;920181;-61
2021/08/17 04:55:18;;;;;;;2.53;1.20;;;;;;;;;;754139;182;919823;-61
2021/08/17 04:57:46;;;;;;;3.50;1.30;;;;;;;;;;762425;181;920026;-62
2021/08/17 05:00:12;;;;;;;3.50;1.23;;;;;;;;;;753259;183;920925;-61
2021/08/17 05:02:38;;;;;;;3.57;1.20;;;;;;;;;;753841;182;918709;-61
2021/08/17 05:05:04;;;;;;;1.87;0.90;;;;;;;;;;760555;183;918865;-60
2021/08/17 05:07:30;;;;;;;2.10;1.00;;;;;;;;;;755367;181;918898;-60
2021/08/17 05:09:56;;;;;;;2.27;1.00;;;;;;;;;;753833;183;918691;-61
2021/08/17 05:12:22;;;;;;;3.77;1.10;;;;;;;;;;761068;183;821835;-61
2021/08/17 05:14:47;;;;;;;3.33;1.33;;;;;;;;;;754898;183;946436;-60
2021/08/17 05:17:13;;;;;;;3.30;1.23;;;;;;;;;;754246;184;918870;-61
2021/08/17 05:19:39;;;;;;;3.17;1.27;;;;;;;;;;753684;184;919579;-60
2021/08/17 05:22:05;;;;;;;1.80;0.90;;;;;;;;;;753937;184;919773;-61
2021/08/17 05:24:31;;;;;;;2.20;1.15;;;;;;;;;;755276;183;919700;-60
2021/08/17 05:26:57;;;;;;;2.40;1.03;;;;;;;;;;752507;184;918249;-61
2021/08/17 05:29:22;;;;;;;3.00;1.30;;;;;;;;;;760103;184;918901;-59
2021/08/17 05:31:48;;;;;;;4.57;1.13;;;;;;;;;;755187;182;919714;-61
2021/08/17 05:34:14;;;;;;;2.67;1.23;;;;;;;;;;753051;184;966682;-59
2021/08/17 05:36:40;;;;;;;2.33;1.03;;;;;;;;;;758945;184;919157;-60
2021/08/17 05:39:06;;;;;;;3.03;1.30;;;;;;;;;;754934;183;919917;-60
2021/08/17 05:41:32;;;;;;;2.10;1.10;;;;;;;;;;754189;184;919852;-61
2021/08/17 05:43:58;;;;;;;3.60;1.40;;;;;;;;;;758700;184;919293;-61
2021/08/17 05:46:23;;;;;;;4.77;1.50;;;;;;;;;;758618;184;918111;-60
2021/08/17 05:48:49;;;;;;;2.97;1.33;;;;;;;;;;753333;184;919304;-62
2021/08/17 05:51:15;;;;;;;4.05;1.90;;;;;;;;;;753425;184;920186;-61
2021/08/17 05:53:41;;;;;;;3.40;1.93;;;;;;;;;;762036;183;919386;-62
2021/08/17 05:56:07;;;;;;;4.40;1.83;;;;;;;;;;757650;183;919576;-60
2021/08/17 05:58:33;;;;;;;4.37;1.50;;;;;;;;;;755123;181;919015;-60
2021/08/17 06:00:59;;;;;;;4.83;1.83;;;;;;;;;;759863;184;920122;-60
2021/08/17 06:03:24;;;;;;;5.43;2.30;;;;;;;;;;755731;184;918325;-60
2021/08/17 06:05:51;;;;;;;6.23;2.07;;;;;;;;;;756039;183;919429;-60
2021/08/17 06:08:16;;;;;;;3.67;1.87;;;;;;;;;;759069;184;919691;-60
2021/08/17 06:10:42;;;;;;;3.47;1.90;;;;;;;;;;753939;182;918712;-60
2021/08/17 06:13:08;;;;;;;3.73;1.40;;;;;;;;;;754156;181;918590;-61
2021/08/17 06:15:33;;;;;;;3.80;1.85;;;;;;;;;;753846;184;920081;-60
2021/08/17 06:18:04;;;;;;;2.60;1.57;;;;;;;;;;762408;183;919574;-60
2021/08/17 06:20:25;;;;;;;4.10;2.17;;;;;;;;;;755416;182;916867;-60
2021/08/17 06:22:51;;;;;;;3.85;1.85;;;;;;;;;;754694;183;918552;-60
2021/08/17 06:25:17;;;;;;;4.10;1.93;;;;;;;;;;759244;183;916401;-61
2021/08/17 06:27:43;;;;;;;3.43;1.93;;;;;;;;;;755300;183;916742;-60
2021/08/17 06:30:09;;;;;;;5.03;2.13;;;;;;;;;;754535;184;916381;-60
2021/08/17 06:32:35;;;;;;;3.80;2.17;;;;;;;;;;758831;184;920173;-60
2021/08/17 06:35:00;;;;;;;3.72;1.95;;;;;;;;;;752644;181;919608;-60
2021/08/17 06:37:26;;;;;;;4.47;2.67;;;;;;;;;;752822;184;920015;-61
2021/08/17 06:39:52;;;;;;;4.13;2.87;;;;;;;;;;753185;181;920439;-60
2021/08/17 06:42:18;;;;;;;4.87;2.07;;;;;;;;;;758886;181;920191;-63
2021/08/17 06:44:44;;;;;;;3.93;2.60;;;;;;;;;;752887;184;918926;-62
2021/08/17 06:47:09;;;;;;;5.67;3.00;;;;;;;;;;755392;184;919339;-61
2021/08/17 06:49:35;;;;;;;8.90;3.90;;;;;;;;;;760994;184;918493;-63
2021/08/17 06:52:01;;;;;;;8.17;3.87;;;;;;;;;;753947;184;919503;-62
2021/08/17 06:54:27;;;;;;;6.90;4.40;;;;;;;;;;756119;181;900548;-61
2021/08/17 06:56:53;;;;;;;10.50;5.70;;;;;;;;;;760324;184;919291;-62
2021/08/17 06:59:19;;;;;;;7.80;5.27;;;;;;;;;;754039;182;932684;-61
2021/08/17 07:01:45;;;;;;;9.40;6.17;;;;;;;;;;755158;184;919368;-61
2021/08/17 07:04:11;;;;;;;11.60;6.67;;;;;;;;;;759997;184;919836;-60
2021/08/17 07:06:37;;;;;;;9.13;6.27;;;;;;;;;;755711;181;921970;-61
2021/08/17 07:09:03;;;;;;;9.63;6.10;;;;;;;;;;755502;183;919221;-61
2021/08/17 07:11:28;;;;;;;8.33;5.63;;;;;;;;;;754212;182;919531;-60
2021/08/17 07:13:54;;;;;;;7.97;5.23;;;;;;;;;;760132;183;918219;-63
2021/08/17 07:16:20;;;;;;;9.63;6.13;;;;;;;;;;755990;183;919346;-62
2021/08/17 07:18:46;;;;;;;7.75;6.20;;;;;;;;;;754407;182;920474;-65
2021/08/17 07:21:12;;;;;;;9.75;5.90;;;;;;;;;;760633;183;920322;-60
2021/08/17 07:23:38;;;;;;;5.70;4.70;;;;;;;;;;755895;183;918220;-61
2021/08/17 07:26:03;;;;;;;7.53;4.95;;;;;;;;;;755013;183;918882;-60
2021/08/17 07:28:29;;;;;;;10.33;5.63;;;;;;;;;;759708;183;919120;-61
2021/08/17 07:30:55;;;;;;;8.70;4.60;;;;;;;;;;753031;184;919530;-61
2021/08/17 07:33:21;;;;;;;8.10;5.47;;;;;;;;;;754420;183;919334;-61
2021/08/17 07:35:47;;;;;;;6.53;4.70;;;;;;;;;;752918;181;1026105;-60
2021/08/17 07:38:13;;;;;;;9.90;5.67;;;;;;;;;;748146;185;919765;-61
2021/08/17 07:40:38;;;;;;;16.97;6.67;;;;;;;;;;755154;184;921396;-62
2021/08/17 07:43:04;;;;;;;8.87;5.70;;;;;;;;;;753152;184;920544;-61
2021/08/17 07:45:30;;;;;;;12.70;6.57;;;;;;;;;;760354;184;919509;-62
2021/08/17 07:47:56;;;;;;;7.93;5.63;;;;;;;;;;757172;181;920445;-61
2021/08/17 07:50:22;;;;;;;8.45;5.87;;;;;;;;;;754478;184;922064;-60
2021/08/17 07:52:50;;;;;;;8.60;6.70;;;;;;;;;;758770;184;921212;-61
2021/08/17 07:55:14;;;;;;;8.03;5.83;;;;;;;;;;753917;184;919720;-61
2021/08/17 07:57:40;;;;;;;11.27;7.20;;;;;;;;;;751969;184;919664;-61
2021/08/17 08:00:07;;;;;;;6.93;5.90;;;;;;;;;;756720;180;917771;-60
2021/08/17 08:02:33;;;;;;;8.40;6.23;;;;;;;;;;761817;182;920514;-59
2021/08/17 08:04:58;;;;;;;20.53;7.83;;;;;;;;;;752838;181;924063;-62
2021/08/17 08:07:24;;;;;;;10.93;7.27;;;;;;;;;;753396;181;919642;-61
2021/08/17 08:09:50;;;;;;;8.00;6.43;;;;;;;;;;759687;182;918961;-61
2021/08/17 08:12:16;;;;;;;8.60;7.00;;;;;;;;;;756211;184;913238;-61
2021/08/17 08:14:42;;;;;;;6.40;5.60;;;;;;;;;;757515;183;918898;-61
2021/08/17 08:17:08;;;;;;;7.05;5.20;;;;;;;;;;760691;183;919114;-60
2021/08/17 08:19:33;;;;;;;9.77;6.80;;;;;;;;;;742054;185;919201;-60
2021/08/17 08:21:59;;;;;;;7.47;5.20;;;;;;;;;;759296;183;919959;-60
2021/08/17 08:24:25;;;;;;;7.30;4.83;;;;;;;;;;763166;183;628913;-60
2021/08/17 08:26:51;;;;;;;13.33;5.00;;;;;;;;;;759149;183;632530;-62
2021/08/17 08:29:17;;;;;;;11.10;5.10;;;;;;;;;;754935;183;919447;-63
2021/08/17 08:31:43;;;;;;;10.27;5.23;;;;;;;;;;753950;183;918883;-60
2021/08/17 08:34:08;;;;;;;7.70;5.47;;;;;;;;;;762866;183;630534;-60
2021/08/17 08:36:34;;;;;;;7.67;4.60;;;;;;;;;;757754;183;911376;-60
2021/08/17 08:39:00;;;;;;;7.03;4.63;;;;;;;;;;754652;184;914419;-60
2021/08/17 08:41:26;;;;;;;6.67;5.07;;;;;;;;;;759377;184;919077;-61
2021/08/17 08:43:52;;;;;;;7.87;4.50;;;;;;;;;;755839;183;919201;-60
2021/08/17 08:46:18;;;;;;;4.90;3.90;;;;;;;;;;754781;183;919530;-61
2021/08/17 08:48:44;;;;;;;5.97;4.30;;;;;;;;;;759434;183;1014885;-61
2021/08/17 08:51:10;;;;;;;7.83;4.90;;;;;;;;;;752897;183;919753;-61
2021/08/17 08:53:36;;;;;;;11.77;5.37;;;;;;;;;;753280;181;919383;-60
2021/08/17 08:56:02;;;;;;;6.97;4.87;;;;;;;;;;753814;184;923647;-60
2021/08/17 08:58:28;;;;;;;8.80;5.07;;;;;;;;;;760387;184;919184;-59
2021/08/17 09:00:54;;;;;;;6.97;4.23;;;;;;;;;;755359;182;918602;-60
2021/08/17 09:03:19;;;;;;;7.33;4.70;;;;;;;;;;752937;184;918460;-60
2021/08/17 09:05:50;;;;;;;7.90;4.80;;;;;;;;;;757073;184;918707;-60
2021/08/17 09:08:15;;;;;;;10.10;5.73;;;;;;;;;;754067;184;919109;-60
2021/08/17 09:10:41;;;;;;;8.10;4.82;;;;;;;;;;753367;184;919196;-60
2021/08/17 09:13:07;;;;;;;15.48;5.75;;;;;;;;;;755278;184;919069;-60
2021/08/17 09:15:33;;;;;;;7.13;4.97;;;;;;;;;;752005;184;918770;-61
2021/08/17 09:18:01;;;;;;;6.17;5.00;;;;;;;;;;754355;184;920060;-61
2021/08/17 09:20:32;;;;;;;8.23;5.80;;;;;;;;;;752543;184;919239;-64
2021/08/17 09:22:56;;;;;;;6.63;4.50;;;;;;;;;;759011;184;919494;-60
2021/08/17 09:25:22;;;;;;;5.30;4.77;;;;;;;;;;753517;183;920159;-60
2021/08/17 09:27:48;;;;;;;11.27;5.03;;;;;;;;;;755964;182;936316;-60
2021/08/17 09:30:16;;;;;;;4.70;4.00;;;;;;;;;;759565;184;918974;-61
2021/08/17 09:32:46;;;;;;;7.17;3.70;;;;;;;;;;754575;184;919234;-60
2021/08/17 09:35:12;;;;;;;5.33;3.20;;;;;;;;;;755382;184;918777;-60
2021/08/17 09:37:38;;;;;;;4.20;3.63;;;;;;;;;;754500;183;919601;-60
2021/08/17 09:40:04;;;;;;;4.90;3.70;;;;;;;;;;758512;183;918782;-60
2021/08/17 09:42:30;;;;;;;6.10;3.97;;;;;;;;;;755839;183;919541;-60
2021/08/17 09:45:02;;;;;;;8.67;3.70;;;;;;;;;;753794;183;918972;-60
2021/08/17 09:47:28;;;;;;;4.60;3.30;;;;;;;;;;753120;182;922336;-60
2021/08/17 09:49:54;;;;;;;4.40;3.23;;;;;;;;;;759783;183;922505;-60
2021/08/17 09:52:20;;;;;;;5.40;2.90;;;;;;;;;;755039;183;919361;-59
2021/08/17 09:54:46;;;;;;;5.43;3.23;;;;;;;;;;755865;183;918150;-60
2021/08/17 09:57:12;;;;;;;6.80;3.53;;;;;;;;;;761680;183;919849;-60
2021/08/17 09:59:37;;;;;;;6.30;3.27;;;;;;;;;;757933;183;927011;-60
2021/08/17 10:02:03;;;;;;;6.50;3.63;;;;;;;;;;757788;184;640655;-60
2021/08/17 10:04:29;;;;;;;6.03;3.80;;;;;;;;;;760863;183;622033;-61
2021/08/17 10:06:55;;;;;;;4.60;2.80;;;;;;;;;;761205;184;620356;-60
2021/08/17 10:09:21;;;;;;;7.47;3.47;;;;;;;;;;757496;184;618526;-61
2021/08/17 10:11:47;;;;;;;6.40;2.90;;;;;;;;;;757655;183;626917;-61
2021/08/17 10:14:12;;;;;;;5.83;3.60;;;;;;;;;;763273;181;618973;-60
2021/08/17 10:16:39;;;;;;;5.00;3.10;;;;;;;;;;759503;184;628930;-61
2021/08/17 10:19:05;;;;;;;6.30;2.60;;;;;;;;;;758720;184;619043;-60
2021/08/17 10:21:30;;;;;;;5.87;2.87;;;;;;;;;;762437;184;639665;-60
2021/08/17 10:23:56;;;;;;;5.57;3.20;;;;;;;;;;759759;184;619512;-61
2021/08/17 10:26:27;;;;;;;6.37;3.43;;;;;;;;;;759125;184;635735;-60
2021/08/17 10:28:53;;;;;;;8.50;3.50;;;;;;;;;;758436;184;626316;-60
2021/08/17 10:31:19;;;;;;;5.77;3.53;;;;;;;;;;761810;184;622855;-61
2021/08/17 10:33:48;;;;;;;9.40;3.53;;;;;;;;;;757329;184;740664;-61
2021/08/17 10:36:12;;;;;;;5.80;2.70;;;;;;;;;;759640;184;637059;-61
2021/08/17 10:38:38;;;;;;;5.60;2.70;;;;;;;;;;762141;183;631777;-60
2021/08/17 10:41:06;;;;;;;7.30;3.07;;;;;;;;;;761782;183;628005;-60
2021/08/17 10:43:45;;;;;;;3.70;2.60;;;;;;;;;;759985;182;631897;-60
2021/08/17 10:46:12;;;;;;;6.20;2.40;;;;;;;;;;759008;183;627183;-60
2021/08/17 10:48:42;;;;;;;5.33;2.70;;;;;;;;;;762943;182;629679;-60
2021/08/17 10:51:08;;;;;;;7.10;2.40;;;;;;;;;;759001;184;628504;-60
2021/08/17 10:53:35;;;;;;;6.00;2.80;;;;;;;;;;757712;184;625417;-60
2021/08/17 10:56:16;;;;;;;6.70;4.10;;;;;;;;;;757542;183;637574;-61
2021/08/17 10:58:42;;;;;;;6.50;3.40;;;;;;;;;;758350;181;616693;-61
2021/08/17 11:01:08;;;;;;;5.07;3.10;;;;;;;;;;763012;184;617782;-61
2021/08/17 11:03:35;;;;;;;6.13;2.57;;;;;;;;;;759273;181;634695;-59
2021/08/17 11:06:01;;;;;;;4.80;2.60;;;;;;;;;;758796;183;633222;-61
2021/08/17 11:08:33;;;;;;;5.83;2.70;;;;;;;;;;762773;183;620732;-61
2021/08/17 11:10:59;;;;;;;5.10;2.60;;;;;;;;;;759089;184;612036;-60
2021/08/17 11:13:26;;;;;;;6.20;3.20;;;;;;;;;;756686;181;804253;-63
2021/08/17 11:15:57;;;;;;;4.23;2.90;;;;;;;;;;756597;184;632848;-62
2021/08/17 11:18:23;;;;;;;3.70;2.30;;;;;;;;;;761153;184;627657;-61
2021/08/17 11:20:48;;;;;;;5.57;3.10;;;;;;;;;;758411;184;636994;-60
2021/08/17 11:23:17;;;;;;;3.67;2.47;;;;;;;;;;757593;182;637108;-61
2021/08/17 11:25:43;;;;;;;5.60;2.97;;;;;;;;;;758553;184;630967;-65
2021/08/17 11:28:09;;;;;;;4.23;2.93;;;;;;;;;;762891;184;635998;-61
2021/08/17 11:30:34;;;;;;;4.63;2.73;;;;;;;;;;759818;182;619302;-60
2021/08/17 11:33:00;;;;;;;5.60;2.43;;;;;;;;;;757707;184;619797;-62
2021/08/17 11:35:27;;;;;;;6.50;3.57;;;;;;;;;;760494;184;633592;-61
2021/08/17 11:37:52;;;;;;;5.20;2.90;;;;;;;;;;757338;183;630466;-61
2021/08/17 11:40:18;;;;;;;5.83;3.10;;;;;;;;;;756997;185;629706;-62
2021/08/17 11:42:44;;;;;;;5.10;2.70;;;;;;;;;;758311;182;623639;-61
2021/08/17 11:45:14;;;;;;;7.03;3.53;;;;;;;;;;764941;181;636764;-62
2021/08/17 11:47:40;;;;;;;4.63;3.40;;;;;;;;;;757370;184;629698;-62
2021/08/17 11:50:07;;;;;;;4.60;2.93;;;;;;;;;;759672;183;627952;-60
2021/08/17 11:52:36;;;;;;;4.53;2.50;;;;;;;;;;764557;183;616425;-61
2021/08/17 11:55:03;;;;;;;5.50;2.83;;;;;;;;;;755633;183;912124;-62
2021/08/17 11:57:29;;;;;;;6.10;2.40;;;;;;;;;;758618;183;626860;-61
2021/08/17 11:59:55;;;;;;;3.37;1.80;;;;;;;;;;758906;183;639210;-61
2021/08/17 12:02:21;;;;;;;2.80;2.07;;;;;;;;;;762790;181;646913;-60
2021/08/17 12:04:50;;;;;;;4.20;2.60;;;;;;;;;;758577;181;678689;-60
2021/08/17 12:07:17;;;;;;;2.90;2.10;;;;;;;;;;758792;183;644413;-62
2021/08/17 12:09:43;;;;;;;3.90;2.63;;;;;;;;;;761322;183;630812;-60
2021/08/17 12:12:09;;;;;;;4.97;2.50;;;;;;;;;;760210;183;631588;-62
2021/08/17 12:14:35;;;;;;;4.37;2.30;;;;;;;;;;760213;183;632002;-60
2021/08/17 12:17:01;;;;;;;3.37;2.33;;;;;;;;;;758207;181;796563;-62
2021/08/17 12:19:27;;;;;;;6.47;2.40;;;;;;;;;;762145;182;645264;-60
2021/08/17 12:21:53;;;;;;;5.10;2.50;;;;;;;;;;759115;183;623975;-62
2021/08/17 12:24:20;;;;;;;5.43;2.40;;;;;;;;;;758300;183;655513;-63
2021/08/17 12:26:51;;;;;;;4.70;2.57;;;;;;;;;;761859;183;629724;-61
2021/08/17 12:29:22;;;;;;;3.07;2.10;;;;;;;;;;759805;184;624368;-62
2021/08/17 12:31:44;;;;;;;4.83;2.63;;;;;;;;;;758013;181;632139;-62
2021/08/17 12:34:09;;;;;;;3.50;2.20;;;;;;;;;;758657;181;625158;-62
2021/08/17 12:36:52;;;;;;;4.10;2.37;;;;;;;;;;762163;181;634895;-61
2021/08/17 12:39:23;;;;;;;4.13;2.23;;;;;;;;;;757046;184;638912;-62
2021/08/17 12:41:50;;;;;;;4.80;3.10;;;;;;;;;;757389;182;627854;-61
2021/08/17 12:44:16;;;;;;;6.47;2.43;;;;;;;;;;757196;184;649833;-61
2021/08/17 12:46:46;;;;;;;4.87;2.90;;;;;;;;;;760745;182;630497;-62
2021/08/17 12:49:12;;;;;;;3.73;2.67;;;;;;;;;;759886;184;633739;-62
2021/08/17 12:51:38;;;;;;;4.00;2.43;;;;;;;;;;758105;184;634805;-61
2021/08/17 12:54:03;;;;;;;4.37;2.80;;;;;;;;;;757626;184;630758;-62
2021/08/17 12:56:29;;;;;;;6.33;2.00;;;;;;;;;;762418;184;628823;-63
2021/08/17 12:58:55;;;;;;;4.93;2.90;;;;;;;;;;759437;184;638002;-61
2021/08/17 13:01:21;;;;;;;3.60;2.13;;;;;;;;;;759033;184;644125;-61
2021/08/17 13:03:48;;;;;;;7.50;2.97;;;;;;;;;;764310;183;629925;-63
2021/08/17 13:06:14;;;;;;;5.73;2.60;;;;;;;;;;759803;181;633129;-62
2021/08/17 13:08:40;;;;;;;3.23;2.27;;;;;;;;;;759605;183;623418;-63
2021/08/17 13:11:05;;;;;;;5.43;2.40;;;;;;;;;;759558;183;630264;-62
2021/08/17 13:13:31;;;;;;;5.70;2.43;;;;;;;;;;763206;183;678458;-62
2021/08/17 13:15:57;;;;;;;4.20;1.90;;;;;;;;;;758087;183;619140;-64
2021/08/17 13:18:23;;;;;;;4.30;2.60;;;;;;;;;;759800;181;638549;-63
2021/08/17 13:20:49;;;;;;;5.20;2.10;;;;;;;;;;762917;183;619242;-62
2021/08/17 13:23:15;;;;;;;3.70;2.23;;;;;;;;;;760472;181;622529;-63
2021/08/17 13:25:41;;;;;;;4.83;1.70;;;;;;;;;;758955;183;628478;-63
2021/08/17 13:28:07;;;;;;;3.57;1.90;;;;;;;;;;762303;183;634368;-62
2021/08/17 13:30:32;;;;;;;5.87;2.83;;;;;;;;;;758863;183;645156;-62
2021/08/17 13:32:58;;;;;;;5.07;2.13;;;;;;;;;;756426;183;922380;-62
2021/08/17 13:35:24;;;;;;;3.30;2.10;;;;;;;;;;758915;183;633327;-63
2021/08/17 13:37:50;;;;;;;4.73;2.90;;;;;;;;;;764372;181;632265;-63
2021/08/17 13:40:16;;;;;;;5.90;2.50;;;;;;;;;;757697;184;663346;-62
2021/08/17 13:42:42;;;;;;;3.07;2.43;;;;;;;;;;758399;184;642208;-63
2021/08/17 13:45:08;;;;;;;6.70;2.50;;;;;;;;;;762296;181;623198;-62
2021/08/17 13:47:33;;;;;;;3.60;2.03;;;;;;;;;;760102;184;630028;-63
2021/08/17 13:50:00;;;;;;;6.73;3.73;;;;;;;;;;757999;183;654465;-61
2021/08/17 13:52:25;;;;;;;9.27;2.00;;;;;;;;;;760498;184;704689;-61
2021/08/17 13:54:51;;;;;;;6.27;2.20;;;;;;;;;;759796;183;613844;-63
2021/08/17 13:57:17;;;;;;;3.67;2.33;;;;;;;;;;759801;184;618962;-62
2021/08/17 13:59:43;;;;;;;5.43;2.25;;;;;;;;;;760045;184;637760;-62
2021/08/17 14:02:09;;;;;;;3.17;2.00;;;;;;;;;;756999;184;620269;-62
2021/08/17 14:04:35;;;;;;;4.67;2.20;;;;;;;;;;757798;184;638708;-63
2021/08/17 14:07:00;;;;;;;3.90;2.00;;;;;;;;;;757621;183;635553;-65
2021/08/17 14:09:26;;;;;;;14.80;2.37;;;;;;;;;;762602;181;634240;-63
2021/08/17 14:11:52;;;;;;;4.80;2.20;;;;;;;;;;759093;184;609711;-62
2021/08/17 14:14:18;;;;;;;3.17;1.97;;;;;;;;;;761477;182;628351;-61
2021/08/17 14:16:44;;;;;;;6.60;2.80;;;;;;;;;;764361;183;627970;-62
2021/08/17 14:19:10;;;;;;;4.80;2.10;;;;;;;;;;760388;183;626690;-63